Terminal Aerodrome Forecast
Issued by NWS

Home | Current Version | Previous Version | Text Only | Print | Product List | Glossary On
Versions: 1 2 3 4 5 6 7 8 9 10 11 12 13 14 15 16 17 18 19
000
FTUS46 KMFR 251739
TAFOTH
TAF
KOTH 251739Z 2518/2618 35008KT P6SM SKC
     FM252000 35015G22KT P6SM SKC
     FM260300 36009KT P6SM SKC
     FM261200 VRB03KT 2SM BR OVC005
     FM261700 31006KT P6SM SKC
      AMD NOT SKED=

USA.gov is the U.S. government's official web portal to all federal, state and local government web resources and services.